UTTT/TAS METAR and TAF weather

Enter ICAO airport designator
Station Type Date Time Source
UTTT METAR 2019/08/24 17:30 UTC NOAA

UTTT 241730Z 10004KT 050V150 CAVOK 25/11 Q1012 R08R/CLRD70 NOSIG


Station Type Date Time Source
UTTT Decoded METAR 2019/08/24 17:30 UTC NOAA

Station name not available
Aug 24, 2019 - 01:30 PM EDT / 2019.08.24 1730 UTC
Wind: from the E (100 degrees) at 5 MPH (4 KT) (direction variable):0
Visibility: greater than 7 mile(s):0
Temperature: 77 F (25 C)
Dew Point: 51 F (11 C)
Relative Humidity: 41%
Pressure (altimeter): 29.88 in. Hg (1012 hPa)
ob: UTTT 241730Z 10004KT 050V150 CAVOK 25/11 Q1012 R08R/CLRD70 NOSIG
cycle: 17

Station Type Date Time Source
UTTT TAF 2019/08/24 18:09 UTC NOAA

TAF UTTT 241700Z 2418/2518 03010KT 7000 NSC TX36/2510Z

Example: see airport list